Time;durP1;ratioP1;P1;durP2;ratioP2;P2;SDS_P1;SDS_P2;PMS_P1;PMS_P2;Temp;Humidity;BMP_temperature;BMP_pressure;BME280_temperature;BME280_humidity;BME280_pressure;Samples;Min_cycle;Max_cycle;Signal;HPM_P1;HPM_P2
2024/03/30 00:01:13;;;;;;;;;;;8.90;99.90;;;;;;5033961;28;19921;-56
2024/03/30 00:03:39;;;;;;;;;;;9.00;99.90;;;;;;5033807;28;20404;-54
2024/03/30 00:06:05;;;;;;;;;;;9.00;99.90;;;;;;5041596;28;19917;-57
2024/03/30 00:08:30;;;;;;;;;;;8.90;99.90;;;;;;5035774;28;19913;-58
2024/03/30 00:10:57;;;;;;;;;;;8.90;99.90;;;;;;5039873;28;19922;-57
2024/03/30 00:13:22;;;;;;;;;;;9.00;99.90;;;;;;5049984;28;19917;-57
2024/03/30 00:15:48;;;;;;;;;;;8.90;99.90;;;;;;5037825;28;19913;-53
2024/03/30 00:18:13;;;;;;;;;;;8.90;99.90;;;;;;5053257;28;19921;-55
2024/03/30 00:20:39;;;;;;;;;;;8.90;99.90;;;;;;5033393;28;19994;-60
2024/03/30 00:23:05;;;;;;;;;;;8.90;99.90;;;;;;5041864;28;19918;-57
2024/03/30 00:25:30;;;;;;;;;;;8.90;99.90;;;;;;5041495;28;19936;-57
2024/03/30 00:27:55;;;;;;;;;;;8.90;99.90;;;;;;5038668;28;19920;-56
2024/03/30 00:30:22;;;;;;;;;;;8.90;99.90;;;;;;5035729;28;19913;-56
2024/03/30 00:32:47;;;;;;;;;;;8.90;99.90;;;;;;5033166;28;19917;-55
2024/03/30 00:35:13;;;;;;;;;;;8.90;99.90;;;;;;5033445;28;19917;-58
2024/03/30 00:37:39;;;;;;;;;;;9.00;99.90;;;;;;5041007;28;19917;-58
2024/03/30 00:40:05;;;;;;;;;;;8.90;99.90;;;;;;5032733;28;20000;-58
2024/03/30 00:42:30;;;;;;;;;;;8.90;99.90;;;;;;5034785;28;20427;-55
2024/03/30 00:44:56;;;;;;;;;;;8.90;99.90;;;;;;5039291;28;19967;-57
2024/03/30 00:47:21;;;;;;;;;;;8.90;99.90;;;;;;5040483;28;19944;-57
2024/03/30 00:49:46;;;;;;;;;;;8.90;99.90;;;;;;5051204;28;19917;-60
2024/03/30 00:52:12;;;;;;;;;;;8.90;99.90;;;;;;5035895;28;20016;-58
2024/03/30 00:54:37;;;;;;;;;;;8.80;99.90;;;;;;5040080;28;20309;-56
2024/03/30 00:57:03;;;;;;;;;;;8.80;99.90;;;;;;5031339;28;19971;-56
2024/03/30 00:59:28;;;;;;;;;;;8.70;99.90;;;;;;5032620;28;19920;-60
2024/03/30 01:01:54;;;;;;;;;;;8.70;99.90;;;;;;5038540;28;20274;-56
2024/03/30 01:04:19;;;;;;;;;;;8.60;99.90;;;;;;5039089;28;19917;-58
2024/03/30 01:06:45;;;;;;;;;;;8.60;99.90;;;;;;5035098;28;19909;-59
2024/03/30 01:09:10;;;;;;;;;;;8.40;99.90;;;;;;5035800;28;19913;-58
2024/03/30 01:11:36;;;;;;;;;;;8.40;99.90;;;;;;5031244;28;19936;-57
2024/03/30 01:14:05;;;;;;;;;;;8.40;99.90;;;;;;5031633;28;19925;-57
2024/03/30 01:16:30;;;;;;;;;;;8.30;99.90;;;;;;5021465;28;19915;-56
2024/03/30 01:18:56;;;;;;;;;;;8.30;99.90;;;;;;5035901;28;19909;-58
2024/03/30 01:21:22;;;;;;;;;;;8.30;99.90;;;;;;5042539;28;19917;-58
2024/03/30 01:23:48;;;;;;;;;;;8.30;99.90;;;;;;5039657;28;19913;-56
2024/03/30 01:26:15;;;;;;;;;;;8.20;99.90;;;;;;5039536;28;19917;-53
2024/03/30 01:28:44;;;;;;;;;;;8.20;99.90;;;;;;5031301;28;20024;-56
2024/03/30 01:31:10;;;;;;;;;;;8.10;99.90;;;;;;5030882;28;19949;-56
2024/03/30 01:33:36;;;;;;;;;;;8.10;99.90;;;;;;5031138;28;19913;-53
2024/03/30 01:36:02;;;;;;;;;;;8.10;99.90;;;;;;5036923;28;20360;-55
2024/03/30 01:38:29;;;;;;;;;;;8.20;99.90;;;;;;5041148;28;19945;-56
2024/03/30 01:40:55;;;;;;;;;;;8.10;99.90;;;;;;5044140;28;20211;-52
2024/03/30 01:43:20;;;;;;;;;;;8.10;99.90;;;;;;5042104;28;19920;-57
2024/03/30 01:45:46;;;;;;;;;;;8.10;99.90;;;;;;4969623;28;1741600;-55
2024/03/30 01:48:12;;;;;;;;;;;8.10;99.90;;;;;;5039003;28;19913;-53
2024/03/30 01:50:39;;;;;;;;;;;8.10;99.90;;;;;;5032103;28;19909;-55
2024/03/30 01:53:06;;;;;;;;;;;8.00;99.90;;;;;;5031649;28;19917;-58
2024/03/30 01:55:32;;;;;;;;;;;7.90;99.90;;;;;;5015421;28;20309;-58
2024/03/30 01:57:59;;;;;;;;;;;7.90;99.90;;;;;;5042953;28;20004;-54
2024/03/30 02:00:25;;;;;;;;;;;7.80;99.90;;;;;;5033497;28;19913;-55
2024/03/30 02:02:51;;;;;;;;;;;7.80;99.90;;;;;;5031553;28;19917;-53
2024/03/30 02:05:18;;;;;;;;;;;7.70;99.90;;;;;;5039380;28;19913;-55
2024/03/30 02:07:46;;;;;;;;;;;7.60;99.90;;;;;;5039476;28;19959;-54
2024/03/30 02:10:12;;;;;;;;;;;7.50;99.90;;;;;;5038115;28;19940;-52
2024/03/30 02:12:38;;;;;;;;;;;7.50;99.90;;;;;;5032319;28;19948;-54
2024/03/30 02:15:03;;;;;;;;;;;7.50;99.90;;;;;;5039505;28;19948;-53
2024/03/30 02:17:29;;;;;;;;;;;7.50;99.90;;;;;;5038164;28;19924;-55
2024/03/30 02:19:57;;;;;;;;;;;7.40;99.90;;;;;;5031034;28;19963;-55
2024/03/30 02:22:23;;;;;;;;;;;7.40;99.90;;;;;;5030850;28;20308;-53
2024/03/30 02:24:48;;;;;;;;;;;7.40;99.90;;;;;;5039305;28;19917;-55
2024/03/30 02:27:14;;;;;;;;;;;7.40;99.90;;;;;;5031207;28;20270;-55
2024/03/30 02:29:40;;;;;;;;;;;7.40;99.90;;;;;;5038717;28;20235;-55
2024/03/30 02:32:06;;;;;;;;;;;7.40;99.90;;;;;;5039147;28;19921;-53
2024/03/30 02:34:32;;;;;;;;;;;7.40;99.90;;;;;;5039122;28;19950;-53
2024/03/30 02:36:57;;;;;;;;;;;7.40;99.90;;;;;;5030899;28;19917;-55
2024/03/30 02:39:23;;;;;;;;;;;7.40;99.90;;;;;;5012229;28;19917;-52
2024/03/30 02:41:48;;;;;;;;;;;7.40;99.90;;;;;;5034785;28;19916;-56
2024/03/30 02:44:14;;;;;;;;;;;7.40;99.90;;;;;;5034839;28;19913;-57
2024/03/30 02:46:39;;;;;;;;;;;7.40;99.90;;;;;;5038369;28;19968;-54
2024/03/30 02:49:04;;;;;;;;;;;7.40;99.90;;;;;;5044593;28;19917;-57
2024/03/30 02:51:30;;;;;;;;;;;7.40;99.90;;;;;;5040749;28;19970;-53
2024/03/30 02:53:55;;;;;;;;;;;7.40;99.90;;;;;;5030775;28;19920;-53
2024/03/30 02:56:21;;;;;;;;;;;7.50;99.90;;;;;;5038385;28;20406;-54
2024/03/30 02:58:47;;;;;;;;;;;7.40;99.90;;;;;;5029916;28;19931;-57
2024/03/30 03:01:12;;;;;;;;;;;7.40;99.90;;;;;;5030253;28;20407;-59
2024/03/30 03:03:38;;;;;;;;;;;7.40;99.90;;;;;;5030277;28;20601;-56
2024/03/30 03:06:03;;;;;;;;;;;7.40;99.90;;;;;;5038275;28;19947;-58
2024/03/30 03:08:29;;;;;;;;;;;7.50;99.90;;;;;;5039570;28;19967;-57
2024/03/30 03:10:54;;;;;;;;;;;7.50;99.90;;;;;;5036927;28;19913;-54
2024/03/30 03:13:20;;;;;;;;;;;7.40;99.90;;;;;;5030081;28;19971;-60
2024/03/30 03:15:46;;;;;;;;;;;7.40;99.90;;;;;;5030039;28;20410;-54
2024/03/30 03:18:11;;;;;;;;;;;7.40;99.90;;;;;;5030040;28;19957;-57
2024/03/30 03:20:37;;;;;;;;;;;7.40;99.90;;;;;;5029275;28;19952;-58
2024/03/30 03:23:02;;;;;;;;;;;7.40;99.90;;;;;;5036026;28;20278;-58
2024/03/30 03:25:28;;;;;;;;;;;7.30;99.90;;;;;;5032246;28;19947;-54
2024/03/30 03:27:53;;;;;;;;;;;7.30;99.90;;;;;;5034299;28;19917;-56
2024/03/30 03:30:19;;;;;;;;;;;7.30;99.90;;;;;;5041157;28;19913;-55
2024/03/30 03:32:45;;;;;;;;;;;7.30;99.90;;;;;;5030185;28;20415;-56
2024/03/30 03:35:11;;;;;;;;;;;7.20;99.90;;;;;;5030014;28;20289;-58
2024/03/30 03:37:36;;;;;;;;;;;7.20;99.90;;;;;;5037759;28;19923;-59
2024/03/30 03:40:02;;;;;;;;;;;7.20;99.90;;;;;;5029445;28;19917;-59
2024/03/30 03:42:27;;;;;;;;;;;7.20;99.90;;;;;;5030663;28;19913;-56
2024/03/30 03:44:53;;;;;;;;;;;7.20;99.90;;;;;;5045262;28;19921;-53
2024/03/30 03:47:18;;;;;;;;;;;7.20;99.90;;;;;;5045753;28;19931;-57
2024/03/30 03:49:44;;;;;;;;;;;7.10;99.90;;;;;;5032682;28;20011;-59
2024/03/30 03:52:09;;;;;;;;;;;7.10;99.90;;;;;;5034595;28;20016;-55
2024/03/30 03:54:35;;;;;;;;;;;7.10;99.90;;;;;;5037856;28;20084;-57
2024/03/30 03:57:00;;;;;;;;;;;7.10;99.90;;;;;;5035011;28;19921;-54
2024/03/30 03:59:26;;;;;;;;;;;7.10;99.90;;;;;;5031652;28;20289;-56
2024/03/30 04:01:51;;;;;;;;;;;7.10;99.90;;;;;;5037876;28;19921;-54
2024/03/30 04:04:17;;;;;;;;;;;7.00;99.90;;;;;;5045618;28;19928;-57
2024/03/30 04:06:42;;;;;;;;;;;7.00;99.90;;;;;;5029470;28;19921;-55
2024/03/30 04:09:08;;;;;;;;;;;6.90;99.90;;;;;;5037395;28;20377;-58
2024/03/30 04:11:34;;;;;;;;;;;7.00;99.90;;;;;;5029678;28;20416;-58
2024/03/30 04:13:59;;;;;;;;;;;6.90;99.90;;;;;;5029622;28;20007;-54
2024/03/30 04:16:25;;;;;;;;;;;6.90;99.90;;;;;;5029600;28;19917;-56
2024/03/30 04:18:50;;;;;;;;;;;6.90;99.90;;;;;;5029257;28;20291;-59
2024/03/30 04:21:16;;;;;;;;;;;6.90;99.90;;;;;;5029458;28;20424;-60
2024/03/30 04:23:42;;;;;;;;;;;6.90;99.90;;;;;;5029481;28;20004;-58
2024/03/30 04:26:09;;;;;;;;;;;6.90;99.90;;;;;;5029324;28;20431;-57
2024/03/30 04:28:35;;;;;;;;;;;6.80;99.90;;;;;;5036896;28;19995;-60
2024/03/30 04:31:02;;;;;;;;;;;6.90;99.90;;;;;;5034963;28;20412;-58
2024/03/30 04:33:27;;;;;;;;;;;6.90;99.90;;;;;;5032010;28;19982;-59
2024/03/30 04:35:56;;;;;;;;;;;6.80;99.90;;;;;;5029226;28;20380;-59
2024/03/30 04:38:25;;;;;;;;;;;6.90;99.90;;;;;;5029423;28;19921;-57
2024/03/30 04:41:01;;;;;;;;;;;6.90;99.90;;;;;;5031234;28;20012;-59
2024/03/30 04:43:27;;;;;;;;;;;6.90;99.90;;;;;;5033129;28;19913;-53
2024/03/30 04:45:52;;;;;;;;;;;7.00;99.90;;;;;;5032883;28;19917;-58
2024/03/30 04:48:18;;;;;;;;;;;7.00;99.90;;;;;;5041235;28;19963;-55
2024/03/30 04:50:44;;;;;;;;;;;6.90;99.90;;;;;;5040760;28;19913;-60
2024/03/30 04:53:09;;;;;;;;;;;7.00;99.90;;;;;;5041215;28;19948;-56
2024/03/30 04:55:35;;;;;;;;;;;6.90;99.90;;;;;;5032552;28;19913;-58
2024/03/30 04:58:00;;;;;;;;;;;6.90;99.90;;;;;;5040882;28;19991;-56
2024/03/30 05:00:26;;;;;;;;;;;7.00;99.90;;;;;;5040437;28;20012;-58
2024/03/30 05:02:51;;;;;;;;;;;7.00;99.90;;;;;;5036821;28;19956;-56
2024/03/30 05:05:17;;;;;;;;;;;7.00;99.90;;;;;;5036708;28;19917;-59
2024/03/30 05:07:42;;;;;;;;;;;7.00;99.90;;;;;;5035024;28;19966;-54
2024/03/30 05:10:08;;;;;;;;;;;7.00;99.90;;;;;;5037276;28;19933;-54
2024/03/30 05:12:34;;;;;;;;;;;7.00;99.90;;;;;;5040859;28;19921;-55
2024/03/30 05:14:59;;;;;;;;;;;7.10;99.90;;;;;;5014734;28;19913;-56
2024/03/30 05:17:24;;;;;;;;;;;7.00;99.90;;;;;;5032112;28;19921;-53
2024/03/30 05:22:34;;;;;;;;;;;7.00;99.90;;;;;;5043078;28;19963;-55
2024/03/30 05:25:00;;;;;;;;;;;7.00;99.90;;;;;;5043782;28;19912;-53
2024/03/30 05:27:25;;;;;;;;;;;7.00;99.90;;;;;;5042248;28;19918;-57
2024/03/30 05:29:51;;;;;;;;;;;7.00;99.90;;;;;;5030987;28;19929;-56
2024/03/30 05:32:16;;;;;;;;;;;7.00;99.90;;;;;;5031425;28;20377;-54
2024/03/30 05:34:42;;;;;;;;;;;7.00;99.90;;;;;;5031168;28;20310;-55
2024/03/30 05:37:07;;;;;;;;;;;7.10;99.90;;;;;;5031442;28;19921;-54
2024/03/30 05:39:32;;;;;;;;;;;7.10;99.90;;;;;;5030590;28;19921;-56
2024/03/30 05:41:58;;;;;;;;;;;7.20;99.90;;;;;;5044686;28;19909;-55
2024/03/30 05:44:24;;;;;;;;;;;7.20;99.90;;;;;;5034655;28;19948;-55
2024/03/30 05:46:49;;;;;;;;;;;7.10;99.90;;;;;;5038741;28;19936;-56
2024/03/30 05:49:15;;;;;;;;;;;7.20;99.90;;;;;;5030550;28;20418;-54
2024/03/30 05:51:40;;;;;;;;;;;7.10;99.90;;;;;;5032128;28;19918;-57
2024/03/30 05:54:06;;;;;;;;;;;7.20;99.90;;;;;;5035972;28;19923;-57
2024/03/30 05:56:31;;;;;;;;;;;7.20;99.90;;;;;;5047061;28;19944;-55
2024/03/30 05:58:56;;;;;;;;;;;7.10;99.90;;;;;;5030229;28;19917;-53
2024/03/30 06:01:22;;;;;;;;;;;7.10;99.90;;;;;;5047227;28;19913;-61
2024/03/30 06:03:47;;;;;;;;;;;7.20;99.90;;;;;;5047126;28;20024;-57
2024/03/30 06:06:13;;;;;;;;;;;7.20;99.90;;;;;;5037362;28;19967;-58
2024/03/30 06:08:38;;;;;;;;;;;7.20;99.90;;;;;;5033229;28;20273;-56
2024/03/30 06:11:04;;;;;;;;;;;7.20;99.90;;;;;;5036656;28;19932;-53
2024/03/30 06:13:29;;;;;;;;;;;7.20;99.90;;;;;;5039551;28;20406;-56
2024/03/30 06:16:02;;;;;;;;;;;7.30;99.90;;;;;;5037593;28;20015;-53
2024/03/30 06:18:28;;;;;;;;;;;7.30;99.90;;;;;;5031128;28;19917;-53
2024/03/30 06:20:53;;;;;;;;;;;7.40;99.90;;;;;;5041670;28;19917;-53
2024/03/30 06:23:18;;;;;;;;;;;7.40;99.90;;;;;;5041977;28;19947;-55
2024/03/30 06:25:44;;;;;;;;;;;7.60;99.90;;;;;;5041707;28;20307;-56
2024/03/30 06:28:09;;;;;;;;;;;7.60;99.90;;;;;;5041732;28;19916;-55
2024/03/30 06:30:35;;;;;;;;;;;7.70;99.90;;;;;;5041405;28;20371;-55
2024/03/30 06:33:00;;;;;;;;;;;7.70;99.90;;;;;;5041843;28;19947;-57
2024/03/30 06:35:26;;;;;;;;;;;7.80;99.90;;;;;;5041156;28;19920;-55
2024/03/30 06:37:52;;;;;;;;;;;7.90;99.90;;;;;;5029729;28;19920;-54
2024/03/30 06:45:45;;;;;;;;;;;8.20;99.90;;;;;;5038590;28;19927;-53
2024/03/30 06:48:11;;;;;;;;;;;8.30;99.90;;;;;;5029842;28;20380;-57
2024/03/30 06:50:37;;;;;;;;;;;8.40;99.90;;;;;;5029461;28;19924;-59
2024/03/30 06:53:02;;;;;;;;;;;8.50;99.90;;;;;;5029767;28;20443;-58
2024/03/30 06:55:28;;;;;;;;;;;8.60;99.90;;;;;;5037534;28;19913;-55
2024/03/30 06:57:53;;;;;;;;;;;8.60;99.90;;;;;;5011769;28;20013;-55
2024/03/30 07:00:19;;;;;;;;;;;8.70;99.90;;;;;;5036994;28;19920;-57
2024/03/30 07:02:45;;;;;;;;;;;8.80;99.90;;;;;;5049211;28;19982;-58
2024/03/30 07:05:10;;;;;;;;;;;8.70;99.90;;;;;;5034889;28;20364;-56
2024/03/30 07:07:36;;;;;;;;;;;8.70;99.90;;;;;;5037530;28;19917;-57
2024/03/30 07:10:02;;;;;;;;;;;8.70;99.90;;;;;;5037440;28;19990;-61
2024/03/30 07:12:27;;;;;;;;;;;8.80;99.90;;;;;;5030105;28;19913;-58
2024/03/30 07:14:53;;;;;;;;;;;8.80;99.90;;;;;;5038816;28;20427;-55
2024/03/30 07:17:18;;;;;;;;;;;8.80;99.90;;;;;;5031649;28;20104;-57
2024/03/30 07:19:44;;;;;;;;;;;8.80;99.90;;;;;;5044194;28;20058;-59
2024/03/30 07:22:09;;;;;;;;;;;8.80;99.90;;;;;;5018111;28;19909;-60
2024/03/30 07:24:35;;;;;;;;;;;8.70;99.90;;;;;;5029325;28;19917;-56
2024/03/30 07:27:00;;;;;;;;;;;8.80;99.90;;;;;;5045413;28;19916;-58
2024/03/30 07:29:26;;;;;;;;;;;8.70;99.90;;;;;;5013174;28;19920;-56
2024/03/30 07:31:53;;;;;;;;;;;8.70;99.90;;;;;;5033044;28;19990;-54
2024/03/30 07:34:19;;;;;;;;;;;8.70;99.90;;;;;;5033904;28;19917;-54
2024/03/30 07:36:45;;;;;;;;;;;8.70;99.90;;;;;;5025644;28;19913;-54
2024/03/30 07:39:10;;;;;;;;;;;8.70;99.90;;;;;;5023382;28;19921;-56
2024/03/30 07:41:35;;;;;;;;;;;8.60;99.90;;;;;;5024127;28;19953;-60
2024/03/30 07:44:01;;;;;;;;;;;8.60;99.90;;;;;;5024215;28;20387;-56
2024/03/30 07:46:26;;;;;;;;;;;8.60;99.90;;;;;;5026597;28;19929;-55
2024/03/30 07:48:52;;;;;;;;;;;8.60;99.90;;;;;;5028245;28;20051;-57
2024/03/30 07:51:17;;;;;;;;;;;8.70;99.90;;;;;;5028823;28;19917;-56
2024/03/30 07:53:43;;;;;;;;;;;8.80;99.90;;;;;;5037223;28;19924;-53
2024/03/30 07:56:08;;;;;;;;;;;8.80;99.90;;;;;;5034916;28;20027;-54
2024/03/30 07:58:34;;;;;;;;;;;9.00;99.90;;;;;;5038970;28;19917;-53
2024/03/30 08:00:59;;;;;;;;;;;9.10;99.90;;;;;;5028352;28;19913;-55
2024/03/30 08:03:25;;;;;;;;;;;9.30;99.90;;;;;;5028782;28;20332;-54
2024/03/30 08:05:54;;;;;;;;;;;9.50;99.90;;;;;;5028664;28;20340;-58
2024/03/30 08:08:19;;;;;;;;;;;9.70;99.90;;;;;;5028846;28;19913;-55
2024/03/30 08:10:45;;;;;;;;;;;9.90;99.90;;;;;;5036591;28;19917;-56
2024/03/30 08:13:10;;;;;;;;;;;10.00;99.90;;;;;;5028826;28;19917;-56
2024/03/30 08:15:39;;;;;;;;;;;10.10;99.90;;;;;;5030812;28;20385;-54
2024/03/30 08:18:05;;;;;;;;;;;10.10;99.90;;;;;;5040476;28;20343;-55
2024/03/30 08:20:31;;;;;;;;;;;10.10;99.90;;;;;;5032304;28;19922;-57
2024/03/30 08:22:56;;;;;;;;;;;10.10;99.90;;;;;;5032685;28;19913;-56
2024/03/30 08:25:22;;;;;;;;;;;10.30;99.90;;;;;;5032733;28;20305;-54
2024/03/30 08:27:47;;;;;;;;;;;10.30;99.90;;;;;;5040477;28;19920;-53
2024/03/30 08:30:13;;;;;;;;;;;10.20;99.90;;;;;;5032024;28;19917;-57
2024/03/30 08:32:38;;;;;;;;;;;10.20;99.90;;;;;;5042691;28;20385;-52
2024/03/30 08:35:04;;;;;;;;;;;10.40;99.90;;;;;;5038528;28;19909;-54
2024/03/30 08:37:29;;;;;;;;;;;10.50;99.90;;;;;;5022570;28;20374;-53
2024/03/30 08:39:55;;;;;;;;;;;10.70;99.90;;;;;;5031924;28;19997;-56
2024/03/30 08:42:20;;;;;;;;;;;10.90;99.90;;;;;;5037127;28;20438;-54
2024/03/30 08:44:47;;;;;;;;;;;11.00;99.90;;;;;;5036180;28;19917;-56
2024/03/30 08:47:12;;;;;;;;;;;11.10;99.90;;;;;;5045166;28;19925;-56
2024/03/30 08:49:38;;;;;;;;;;;11.00;99.90;;;;;;5036815;28;20288;-53
2024/03/30 08:52:04;;;;;;;;;;;11.30;99.90;;;;;;5040407;28;19983;-60
2024/03/30 08:54:29;;;;;;;;;;;11.50;99.90;;;;;;5014120;28;20331;-58
2024/03/30 08:56:55;;;;;;;;;;;11.40;99.90;;;;;;5042396;28;19910;-59
2024/03/30 08:59:20;;;;;;;;;;;11.60;99.90;;;;;;5031478;28;19951;-57
2024/03/30 09:01:45;;;;;;;;;;;11.70;99.90;;;;;;5031120;28;19917;-57
2024/03/30 09:04:11;;;;;;;;;;;11.60;99.90;;;;;;5040352;28;19909;-55
2024/03/30 09:06:36;;;;;;;;;;;11.70;99.90;;;;;;5020624;28;19917;-57
2024/03/30 09:09:02;;;;;;;;;;;11.70;99.90;;;;;;5030855;28;19917;-53
2024/03/30 09:11:27;;;;;;;;;;;11.70;99.90;;;;;;5039873;28;19917;-57
2024/03/30 09:13:53;;;;;;;;;;;11.70;99.90;;;;;;5031602;28;20012;-52
2024/03/30 09:16:18;;;;;;;;;;;11.80;99.90;;;;;;5031509;28;19917;-57
2024/03/30 09:18:44;;;;;;;;;;;12.00;99.90;;;;;;5038946;28;21727;-56
2024/03/30 09:21:09;;;;;;;;;;;12.20;99.90;;;;;;5031421;28;19924;-53
2024/03/30 09:23:35;;;;;;;;;;;12.20;99.90;;;;;;5039817;28;20560;-54
2024/03/30 09:26:00;;;;;;;;;;;12.10;99.90;;;;;;5036142;28;20007;-55
2024/03/30 09:28:26;;;;;;;;;;;12.30;99.90;;;;;;5034434;28;19913;-56
2024/03/30 09:30:52;;;;;;;;;;;12.30;99.90;;;;;;5039102;28;19917;-55
2024/03/30 09:33:17;;;;;;;;;;;12.50;99.90;;;;;;5031477;28;19986;-58
2024/03/30 09:35:43;;;;;;;;;;;12.60;99.90;;;;;;5031259;28;20160;-57
2024/03/30 09:38:09;;;;;;;;;;;12.80;99.90;;;;;;5030975;28;20393;-54
2024/03/30 09:40:35;;;;;;;;;;;12.80;99.90;;;;;;5040037;28;19935;-55
2024/03/30 09:43:00;;;;;;;;;;;12.60;99.90;;;;;;5037984;28;19913;-56
2024/03/30 09:45:26;;;;;;;;;;;12.60;99.90;;;;;;5047272;28;19912;-55
2024/03/30 09:47:52;;;;;;;;;;;12.70;99.90;;;;;;5039008;28;19928;-58
2024/03/30 09:50:18;;;;;;;;;;;12.90;99.90;;;;;;5038596;28;20001;-57
2024/03/30 09:52:44;;;;;;;;;;;13.10;99.90;;;;;;5039000;28;20012;-57
2024/03/30 09:55:11;;;;;;;;;;;13.10;99.90;;;;;;5045147;28;19913;-54
2024/03/30 09:57:39;;;;;;;;;;;13.20;99.90;;;;;;5040444;28;20494;-56
2024/03/30 10:00:05;;;;;;;;;;;13.30;99.90;;;;;;5036057;28;19915;-56
2024/03/30 10:02:31;;;;;;;;;;;13.50;99.90;;;;;;5041425;28;19987;-54
2024/03/30 10:04:56;;;;;;;;;;;13.60;99.90;;;;;;5030464;28;19924;-56
2024/03/30 10:07:27;;;;;;;;;;;13.70;99.90;;;;;;5038049;28;19920;-57
2024/03/30 10:09:57;;;;;;;;;;;13.80;99.90;;;;;;5037998;28;19917;-55
2024/03/30 10:12:36;;;;;;;;;;;13.90;99.90;;;;;;5030463;28;19909;-57
2024/03/30 10:15:05;;;;;;;;;;;14.10;99.90;;;;;;5023804;28;19932;-56
2024/03/30 10:17:30;;;;;;;;;;;14.20;99.90;;;;;;5012275;28;20370;-57
2024/03/30 10:19:56;;;;;;;;;;;14.50;99.90;;;;;;5034141;28;19916;-56
2024/03/30 10:22:22;;;;;;;;;;;14.30;99.90;;;;;;5042865;28;19913;-56
2024/03/30 10:24:48;;;;;;;;;;;14.40;99.90;;;;;;5030120;28;19975;-59
2024/03/30 10:27:14;;;;;;;;;;;14.40;99.90;;;;;;5030615;28;20368;-56
2024/03/30 10:29:42;;;;;;;;;;;14.80;99.90;;;;;;5036970;28;19913;-56
2024/03/30 10:32:09;;;;;;;;;;;15.00;99.90;;;;;;5037507;28;20381;-55
2024/03/30 10:34:34;;;;;;;;;;;15.00;99.90;;;;;;5037580;28;19909;-53
2024/03/30 10:37:00;;;;;;;;;;;14.90;99.90;;;;;;5034514;28;20019;-52
2024/03/30 10:39:28;;;;;;;;;;;15.20;99.90;;;;;;5040977;28;19992;-51
2024/03/30 10:41:54;;;;;;;;;;;15.30;99.90;;;;;;5038236;28;19921;-51
2024/03/30 10:44:29;;;;;;;;;;;15.50;99.90;;;;;;5030326;28;20341;-52
2024/03/30 10:46:55;;;;;;;;;;;15.70;99.90;;;;;;5029582;28;20456;-56
2024/03/30 10:49:22;;;;;;;;;;;15.60;99.90;;;;;;5037574;28;20297;-51
2024/03/30 10:51:48;;;;;;;;;;;15.70;99.90;;;;;;5029581;28;20044;-53
2024/03/30 10:54:14;;;;;;;;;;;15.90;99.90;;;;;;5036190;28;20400;-55
2024/03/30 10:57:06;;;;;;;;;;;16.00;99.90;;;;;;5031192;28;19913;-55
2024/03/30 10:59:40;;;;;;;;;;;15.90;99.90;;;;;;5024196;28;19962;-51
2024/03/30 11:02:13;;;;;;;;;;;15.80;99.90;;;;;;5037837;28;20332;-58
2024/03/30 11:04:39;;;;;;;;;;;15.90;99.90;;;;;;5037967;28;20033;-57
2024/03/30 11:07:04;;;;;;;;;;;15.90;99.90;;;;;;5029285;28;19917;-52
2024/03/30 11:09:31;;;;;;;;;;;16.00;99.90;;;;;;5029400;28;19917;-52
2024/03/30 11:11:57;;;;;;;;;;;16.00;99.90;;;;;;5029545;28;20417;-56
2024/03/30 11:14:23;;;;;;;;;;;16.00;99.90;;;;;;5029573;28;20009;-56
2024/03/30 11:16:51;;;;;;;;;;;16.00;99.90;;;;;;5048736;28;19924;-51
2024/03/30 11:19:20;;;;;;;;;;;16.00;99.90;;;;;;5033704;28;20310;-53
2024/03/30 11:21:50;;;;;;;;;;;16.00;99.90;;;;;;5029368;28;19913;-55
2024/03/30 11:24:16;;;;;;;;;;;16.00;99.90;;;;;;5029343;28;20327;-55
2024/03/30 11:26:48;;;;;;;;;;;15.90;99.90;;;;;;5037463;28;19956;-56
2024/03/30 11:29:23;;;;;;;;;;;15.90;99.90;;;;;;5028811;28;19917;-56
2024/03/30 11:31:52;;;;;;;;;;;15.80;99.90;;;;;;5037493;28;19952;-57
2024/03/30 11:34:23;;;;;;;;;;;15.70;99.90;;;;;;5029325;28;19932;-60
2024/03/30 11:37:01;;;;;;;;;;;15.40;99.90;;;;;;5036269;28;19920;-57
2024/03/30 11:39:28;;;;;;;;;;;15.30;99.90;;;;;;5037195;28;19909;-54
2024/03/30 11:42:00;;;;;;;;;;;15.20;99.90;;;;;;5037143;28;19917;-53
2024/03/30 11:44:27;;;;;;;;;;;15.20;99.90;;;;;;5037411;28;20074;-55
2024/03/30 11:46:52;;;;;;;;;;;15.10;99.90;;;;;;5032638;28;19920;-56
2024/03/30 11:49:18;;;;;;;;;;;15.20;99.90;;;;;;5034687;28;20292;-59
2024/03/30 11:51:44;;;;;;;;;;;15.20;99.90;;;;;;5034425;28;19924;-58
2024/03/30 11:54:20;;;;;;;;;;;15.10;99.90;;;;;;5044229;28;19913;-54
2024/03/30 11:57:04;;;;;;;;;;;15.20;99.90;;;;;;5041595;28;19913;-55
2024/03/30 11:59:43;;;;;;;;;;;15.20;99.90;;;;;;5040673;28;19940;-54
2024/03/30 12:02:12;;;;;;;;;;;15.40;99.90;;;;;;5033262;28;19913;-53
2024/03/30 12:04:47;;;;;;;;;;;15.40;99.90;;;;;;5033004;28;19943;-53
2024/03/30 12:07:19;;;;;;;;;;;15.50;99.90;;;;;;5040900;28;20370;-55
2024/03/30 12:09:45;;;;;;;;;;;15.60;99.90;;;;;;5040815;28;19956;-55
2024/03/30 12:12:11;;;;;;;;;;;15.60;99.90;;;;;;5033085;28;19975;-58
2024/03/30 12:14:40;;;;;;;;;;;15.80;99.90;;;;;;5032617;28;19967;-56
2024/03/30 12:17:05;;;;;;;;;;;15.80;99.90;;;;;;5032714;28;19917;-53
2024/03/30 12:19:31;;;;;;;;;;;15.80;99.90;;;;;;5032150;28;20002;-56
2024/03/30 12:21:57;;;;;;;;;;;15.90;99.90;;;;;;5044886;28;20503;-53
2024/03/30 12:24:24;;;;;;;;;;;15.90;99.90;;;;;;5036850;28;19925;-55
2024/03/30 12:26:49;;;;;;;;;;;15.80;99.90;;;;;;5032653;28;19917;-55
2024/03/30 12:29:15;;;;;;;;;;;15.80;99.90;;;;;;5031994;28;20319;-56
2024/03/30 12:31:40;;;;;;;;;;;15.90;99.90;;;;;;5034239;28;19924;-51
2024/03/30 12:34:06;;;;;;;;;;;16.00;99.90;;;;;;5044189;28;19912;-53
2024/03/30 12:36:31;;;;;;;;;;;15.90;99.90;;;;;;5043367;28;19913;-56
2024/03/30 12:38:57;;;;;;;;;;;16.00;99.90;;;;;;5040006;28;20030;-53
2024/03/30 12:41:22;;;;;;;;;;;16.00;99.90;;;;;;5032650;28;19913;-57
2024/03/30 12:43:57;;;;;;;;;;;16.00;99.90;;;;;;5040473;28;19909;-52
2024/03/30 12:46:22;;;;;;;;;;;16.00;99.90;;;;;;5032070;28;19921;-52
2024/03/30 12:48:48;;;;;;;;;;;16.00;99.90;;;;;;5031342;28;19920;-53
2024/03/30 12:51:13;;;;;;;;;;;15.90;99.90;;;;;;5038449;28;19955;-56
2024/03/30 12:53:39;;;;;;;;;;;15.70;99.90;;;;;;5043694;28;19920;-59
2024/03/30 12:56:04;;;;;;;;;;;15.50;99.90;;;;;;5046866;28;19932;-57
2024/03/30 12:58:30;;;;;;;;;;;15.30;99.90;;;;;;5031687;28;19921;-55
2024/03/30 13:00:56;;;;;;;;;;;15.00;99.90;;;;;;5039088;28;19963;-56
2024/03/30 13:03:22;;;;;;;;;;;14.90;99.90;;;;;;5032118;28;20277;-54
2024/03/30 13:05:48;;;;;;;;;;;14.80;99.90;;;;;;5039915;28;19917;-56
2024/03/30 13:08:14;;;;;;;;;;;14.70;99.90;;;;;;5038273;28;20295;-58
2024/03/30 13:10:41;;;;;;;;;;;14.70;99.90;;;;;;5014496;28;19917;-55
2024/03/30 13:13:07;;;;;;;;;;;14.80;99.90;;;;;;5032207;28;20265;-53
2024/03/30 13:15:33;;;;;;;;;;;14.70;99.90;;;;;;5032274;28;19932;-53
2024/03/30 13:18:06;;;;;;;;;;;14.70;99.90;;;;;;5047451;28;20335;-56
2024/03/30 13:20:31;;;;;;;;;;;14.60;99.90;;;;;;5031086;28;19917;-55
2024/03/30 13:22:58;;;;;;;;;;;14.40;99.90;;;;;;5013843;28;19998;-53
2024/03/30 13:25:24;;;;;;;;;;;14.40;99.90;;;;;;5039737;28;19966;-54
2024/03/30 13:27:49;;;;;;;;;;;14.40;99.90;;;;;;5039841;28;19917;-59
2024/03/30 13:30:15;;;;;;;;;;;14.20;99.90;;;;;;5031016;28;20301;-54
2024/03/30 13:32:41;;;;;;;;;;;14.20;99.90;;;;;;5028569;28;20012;-54
2024/03/30 13:35:07;;;;;;;;;;;14.20;99.90;;;;;;5039340;28;20376;-56
2024/03/30 13:37:37;;;;;;;;;;;14.10;99.90;;;;;;5039821;28;19932;-55
2024/03/30 13:40:05;;;;;;;;;;;14.10;99.90;;;;;;5038080;28;19984;-55
2024/03/30 13:42:31;;;;;;;;;;;14.10;99.90;;;;;;5031346;28;19913;-58
2024/03/30 13:44:57;;;;;;;;;;;14.20;99.90;;;;;;5031459;28;19913;-54
2024/03/30 13:47:22;;;;;;;;;;;14.20;99.90;;;;;;5038581;28;20016;-55
2024/03/30 13:49:48;;;;;;;;;;;14.00;99.90;;;;;;5031365;28;20352;-59
2024/03/30 13:52:13;;;;;;;;;;;14.00;99.90;;;;;;5039271;28;20443;-53
2024/03/30 13:54:39;;;;;;;;;;;14.00;99.90;;;;;;5030882;28;19996;-57
2024/03/30 13:57:06;;;;;;;;;;;14.10;99.90;;;;;;5044198;28;19913;-58
2024/03/30 13:59:32;;;;;;;;;;;14.10;99.90;;;;;;5034047;28;19917;-59
2024/03/30 14:01:58;;;;;;;;;;;14.20;99.90;;;;;;5036282;28;19924;-59
2024/03/30 14:04:23;;;;;;;;;;;14.20;99.90;;;;;;5030484;28;20245;-56
2024/03/30 14:06:49;;;;;;;;;;;14.30;99.90;;;;;;5029873;28;19917;-55
2024/03/30 14:09:15;;;;;;;;;;;14.50;99.90;;;;;;5029785;28;19913;-55
2024/03/30 14:11:40;;;;;;;;;;;14.40;99.90;;;;;;5030101;28;19919;-56
2024/03/30 14:14:05;;;;;;;;;;;14.50;99.90;;;;;;5029561;28;20003;-57
2024/03/30 14:16:31;;;;;;;;;;;14.40;99.90;;;;;;5032327;28;19913;-57
2024/03/30 14:18:56;;;;;;;;;;;14.40;99.90;;;;;;5034344;28;20037;-59
2024/03/30 14:21:22;;;;;;;;;;;14.50;99.90;;;;;;5030045;28;19952;-52
2024/03/30 14:23:48;;;;;;;;;;;14.50;99.90;;;;;;5034764;28;19948;-57
2024/03/30 14:26:14;;;;;;;;;;;14.40;99.90;;;;;;5029850;28;19922;-56